sensor_id;sensor_type;location;lat;lon;timestamp;P1;durP1;ratioP1;P2;durP2;ratioP2
22068;SDS011;13887;57.196;-2.100;2023-02-03T00:02:01;12.70;;;12.30;;
22068;SDS011;13887;57.196;-2.100;2023-02-03T00:04:28;12.83;;;12.43;;
22068;SDS011;13887;57.196;-2.100;2023-02-03T00:06:55;12.73;;;12.33;;
22068;SDS011;13887;57.196;-2.100;2023-02-03T00:09:22;13.00;;;12.60;;
22068;SDS011;13887;57.196;-2.100;2023-02-03T00:11:49;12.70;;;12.30;;
22068;SDS011;13887;57.196;-2.100;2023-02-03T00:14:16;12.50;;;12.10;;
22068;SDS011;13887;57.196;-2.100;2023-02-03T00:16:43;12.73;;;12.33;;
22068;SDS011;13887;57.196;-2.100;2023-02-03T00:19:10;12.23;;;11.83;;
22068;SDS011;13887;57.196;-2.100;2023-02-03T00:21:37;12.93;;;12.53;;
22068;SDS011;13887;57.196;-2.100;2023-02-03T00:24:04;12.70;;;12.30;;
22068;SDS011;13887;57.196;-2.100;2023-02-03T00:26:31;13.00;;;12.60;;
22068;SDS011;13887;57.196;-2.100;2023-02-03T00:28:59;12.77;;;12.37;;
22068;SDS011;13887;57.196;-2.100;2023-02-03T00:31:26;12.40;;;12.00;;
22068;SDS011;13887;57.196;-2.100;2023-02-03T00:33:53;12.60;;;12.20;;
22068;SDS011;13887;57.196;-2.100;2023-02-03T00:36:22;12.50;;;12.10;;
22068;SDS011;13887;57.196;-2.100;2023-02-03T00:38:50;12.27;;;11.87;;
22068;SDS011;13887;57.196;-2.100;2023-02-03T00:41:18;12.83;;;12.43;;
22068;SDS011;13887;57.196;-2.100;2023-02-03T00:43:46;13.17;;;12.77;;
22068;SDS011;13887;57.196;-2.100;2023-02-03T00:46:14;12.73;;;12.33;;
22068;SDS011;13887;57.196;-2.100;2023-02-03T00:48:41;13.00;;;12.60;;
22068;SDS011;13887;57.196;-2.100;2023-02-03T00:51:08;13.47;;;12.97;;
22068;SDS011;13887;57.196;-2.100;2023-02-03T00:53:35;13.33;;;12.87;;
22068;SDS011;13887;57.196;-2.100;2023-02-03T00:56:02;13.60;;;13.10;;
22068;SDS011;13887;57.196;-2.100;2023-02-03T00:58:29;13.57;;;13.07;;
22068;SDS011;13887;57.196;-2.100;2023-02-03T01:00:56;13.00;;;12.60;;
22068;SDS011;13887;57.196;-2.100;2023-02-03T01:03:23;13.60;;;13.10;;
22068;SDS011;13887;57.196;-2.100;2023-02-03T01:05:50;13.63;;;13.13;;
22068;SDS011;13887;57.196;-2.100;2023-02-03T01:08:18;13.90;;;13.40;;
22068;SDS011;13887;57.196;-2.100;2023-02-03T01:10:45;13.77;;;13.27;;
22068;SDS011;13887;57.196;-2.100;2023-02-03T01:13:12;13.57;;;13.07;;
22068;SDS011;13887;57.196;-2.100;2023-02-03T01:15:45;13.57;;;13.07;;
22068;SDS011;13887;57.196;-2.100;2023-02-03T01:18:13;13.70;;;13.20;;
22068;SDS011;13887;57.196;-2.100;2023-02-03T01:20:42;13.60;;;13.10;;
22068;SDS011;13887;57.196;-2.100;2023-02-03T01:23:09;13.47;;;12.97;;
22068;SDS011;13887;57.196;-2.100;2023-02-03T01:25:36;13.60;;;13.10;;
22068;SDS011;13887;57.196;-2.100;2023-02-03T01:28:03;13.73;;;13.23;;
22068;SDS011;13887;57.196;-2.100;2023-02-03T01:30:31;13.70;;;13.20;;
22068;SDS011;13887;57.196;-2.100;2023-02-03T01:32:58;13.33;;;12.90;;
22068;SDS011;13887;57.196;-2.100;2023-02-03T01:35:25;13.60;;;13.10;;
22068;SDS011;13887;57.196;-2.100;2023-02-03T01:37:52;13.37;;;12.87;;
22068;SDS011;13887;57.196;-2.100;2023-02-03T01:40:19;12.80;;;12.40;;
22068;SDS011;13887;57.196;-2.100;2023-02-03T01:42:46;12.87;;;12.47;;
22068;SDS011;13887;57.196;-2.100;2023-02-03T01:45:13;13.20;;;12.80;;
22068;SDS011;13887;57.196;-2.100;2023-02-03T01:47:49;13.30;;;12.90;;
22068;SDS011;13887;57.196;-2.100;2023-02-03T01:50:30;13.07;;;12.67;;
22068;SDS011;13887;57.196;-2.100;2023-02-03T01:53:00;13.30;;;12.90;;
22068;SDS011;13887;57.196;-2.100;2023-02-03T01:55:32;13.27;;;12.83;;
22068;SDS011;13887;57.196;-2.100;2023-02-03T01:58:11;13.70;;;13.20;;
22068;SDS011;13887;57.196;-2.100;2023-02-03T02:00:46;13.70;;;13.20;;
22068;SDS011;13887;57.196;-2.100;2023-02-03T02:03:15;13.70;;;13.20;;
22068;SDS011;13887;57.196;-2.100;2023-02-03T02:05:47;13.70;;;13.20;;
22068;SDS011;13887;57.196;-2.100;2023-02-03T02:08:17;13.50;;;13.00;;
22068;SDS011;13887;57.196;-2.100;2023-02-03T02:10:48;13.23;;;12.83;;
22068;SDS011;13887;57.196;-2.100;2023-02-03T02:13:16;13.33;;;12.90;;
22068;SDS011;13887;57.196;-2.100;2023-02-03T02:35:05;13.40;;;12.93;;
22068;SDS011;13887;57.196;-2.100;2023-02-03T02:37:51;13.57;;;13.07;;
22068;SDS011;13887;57.196;-2.100;2023-02-03T02:40:31;13.53;;;13.03;;
22068;SDS011;13887;57.196;-2.100;2023-02-03T02:43:09;13.33;;;12.90;;
22068;SDS011;13887;57.196;-2.100;2023-02-03T02:45:44;13.63;;;13.13;;
22068;SDS011;13887;57.196;-2.100;2023-02-03T02:51:22;12.97;;;12.57;;
22068;SDS011;13887;57.196;-2.100;2023-02-03T02:53:53;13.10;;;12.70;;
22068;SDS011;13887;57.196;-2.100;2023-02-03T02:56:24;12.80;;;12.40;;
22068;SDS011;13887;57.196;-2.100;2023-02-03T02:58:52;13.20;;;12.80;;
22068;SDS011;13887;57.196;-2.100;2023-02-03T03:01:22;13.13;;;12.73;;
22068;SDS011;13887;57.196;-2.100;2023-02-03T03:03:49;13.07;;;12.67;;
22068;SDS011;13887;57.196;-2.100;2023-02-03T03:06:25;13.60;;;13.10;;
22068;SDS011;13887;57.196;-2.100;2023-02-03T03:08:57;13.43;;;12.93;;
22068;SDS011;13887;57.196;-2.100;2023-02-03T03:11:32;13.13;;;12.73;;
22068;SDS011;13887;57.196;-2.100;2023-02-03T03:14:05;13.17;;;12.77;;
22068;SDS011;13887;57.196;-2.100;2023-02-03T03:16:36;13.13;;;12.73;;
22068;SDS011;13887;57.196;-2.100;2023-02-03T03:19:06;13.43;;;12.93;;
22068;SDS011;13887;57.196;-2.100;2023-02-03T03:21:37;12.90;;;12.50;;
22068;SDS011;13887;57.196;-2.100;2023-02-03T03:24:09;13.13;;;12.73;;
22068;SDS011;13887;57.196;-2.100;2023-02-03T03:26:45;13.17;;;12.77;;
22068;SDS011;13887;57.196;-2.100;2023-02-03T03:29:27;13.00;;;12.60;;
22068;SDS011;13887;57.196;-2.100;2023-02-03T03:32:00;12.97;;;12.57;;
22068;SDS011;13887;57.196;-2.100;2023-02-03T03:34:28;13.03;;;12.63;;
22068;SDS011;13887;57.196;-2.100;2023-02-03T03:37:00;12.83;;;12.43;;
22068;SDS011;13887;57.196;-2.100;2023-02-03T03:40:51;13.07;;;12.67;;
22068;SDS011;13887;57.196;-2.100;2023-02-03T03:45:23;13.27;;;12.87;;
22068;SDS011;13887;57.196;-2.100;2023-02-03T03:48:10;12.70;;;12.30;;
22068;SDS011;13887;57.196;-2.100;2023-02-03T03:51:01;13.07;;;12.67;;
22068;SDS011;13887;57.196;-2.100;2023-02-03T03:53:31;13.10;;;12.70;;
22068;SDS011;13887;57.196;-2.100;2023-02-03T03:56:00;13.03;;;12.63;;
22068;SDS011;13887;57.196;-2.100;2023-02-03T03:58:31;13.10;;;12.70;;
22068;SDS011;13887;57.196;-2.100;2023-02-03T04:01:00;13.27;;;12.87;;
22068;SDS011;13887;57.196;-2.100;2023-02-03T04:03:30;13.50;;;13.00;;
22068;SDS011;13887;57.196;-2.100;2023-02-03T04:06:01;13.30;;;12.80;;
22068;SDS011;13887;57.196;-2.100;2023-02-03T04:08:28;13.33;;;12.87;;
22068;SDS011;13887;57.196;-2.100;2023-02-03T04:10:55;13.47;;;12.97;;
22068;SDS011;13887;57.196;-2.100;2023-02-03T04:13:22;13.73;;;13.23;;
22068;SDS011;13887;57.196;-2.100;2023-02-03T04:15:49;13.80;;;13.30;;
22068;SDS011;13887;57.196;-2.100;2023-02-03T04:18:16;13.73;;;13.23;;
22068;SDS011;13887;57.196;-2.100;2023-02-03T04:20:43;13.47;;;12.97;;
22068;SDS011;13887;57.196;-2.100;2023-02-03T04:23:10;13.50;;;13.00;;
22068;SDS011;13887;57.196;-2.100;2023-02-03T04:25:36;13.20;;;12.80;;
22068;SDS011;13887;57.196;-2.100;2023-02-03T04:28:03;13.07;;;12.67;;
22068;SDS011;13887;57.196;-2.100;2023-02-03T04:30:31;13.60;;;13.10;;
22068;SDS011;13887;57.196;-2.100;2023-02-03T04:32:58;13.30;;;12.87;;
22068;SDS011;13887;57.196;-2.100;2023-02-03T04:35:25;12.97;;;12.57;;
22068;SDS011;13887;57.196;-2.100;2023-02-03T04:37:53;12.97;;;12.57;;
22068;SDS011;13887;57.196;-2.100;2023-02-03T04:40:19;13.07;;;12.67;;
22068;SDS011;13887;57.196;-2.100;2023-02-03T04:42:46;12.87;;;12.47;;
22068;SDS011;13887;57.196;-2.100;2023-02-03T04:45:14;13.17;;;12.77;;
22068;SDS011;13887;57.196;-2.100;2023-02-03T04:47:40;13.07;;;12.67;;
22068;SDS011;13887;57.196;-2.100;2023-02-03T04:50:08;13.13;;;12.73;;
22068;SDS011;13887;57.196;-2.100;2023-02-03T04:52:35;13.23;;;12.83;;
22068;SDS011;13887;57.196;-2.100;2023-02-03T04:55:01;13.23;;;12.80;;
22068;SDS011;13887;57.196;-2.100;2023-02-03T04:57:29;13.50;;;13.00;;
22068;SDS011;13887;57.196;-2.100;2023-02-03T04:59:56;13.20;;;12.80;;
22068;SDS011;13887;57.196;-2.100;2023-02-03T05:02:23;13.33;;;12.90;;
22068;SDS011;13887;57.196;-2.100;2023-02-03T05:04:50;13.23;;;12.83;;
22068;SDS011;13887;57.196;-2.100;2023-02-03T05:07:17;13.70;;;13.20;;
22068;SDS011;13887;57.196;-2.100;2023-02-03T05:09:44;13.67;;;13.17;;
22068;SDS011;13887;57.196;-2.100;2023-02-03T05:12:10;13.30;;;12.90;;
22068;SDS011;13887;57.196;-2.100;2023-02-03T05:14:37;15.33;;;14.73;;
22068;SDS011;13887;57.196;-2.100;2023-02-03T05:17:04;13.27;;;12.87;;
22068;SDS011;13887;57.196;-2.100;2023-02-03T05:19:31;13.50;;;13.00;;
22068;SDS011;13887;57.196;-2.100;2023-02-03T05:21:58;13.60;;;13.10;;
22068;SDS011;13887;57.196;-2.100;2023-02-03T05:24:25;12.93;;;12.53;;
22068;SDS011;13887;57.196;-2.100;2023-02-03T05:26:52;13.50;;;13.00;;
22068;SDS011;13887;57.196;-2.100;2023-02-03T05:29:19;13.27;;;12.87;;
22068;SDS011;13887;57.196;-2.100;2023-02-03T05:31:46;13.07;;;12.67;;
22068;SDS011;13887;57.196;-2.100;2023-02-03T05:34:13;13.43;;;12.97;;
22068;SDS011;13887;57.196;-2.100;2023-02-03T05:36:40;12.60;;;12.20;;
22068;SDS011;13887;57.196;-2.100;2023-02-03T05:39:07;13.00;;;12.60;;
22068;SDS011;13887;57.196;-2.100;2023-02-03T05:41:34;12.53;;;12.13;;
22068;SDS011;13887;57.196;-2.100;2023-02-03T05:44:21;12.60;;;12.20;;
22068;SDS011;13887;57.196;-2.100;2023-02-03T05:46:53;12.90;;;12.50;;
22068;SDS011;13887;57.196;-2.100;2023-02-03T05:49:22;13.53;;;13.03;;
22068;SDS011;13887;57.196;-2.100;2023-02-03T05:51:50;13.43;;;12.93;;
22068;SDS011;13887;57.196;-2.100;2023-02-03T05:54:18;12.47;;;12.07;;
22068;SDS011;13887;57.196;-2.100;2023-02-03T05:56:45;14.97;;;14.47;;
22068;SDS011;13887;57.196;-2.100;2023-02-03T05:59:12;13.77;;;13.27;;
22068;SDS011;13887;57.196;-2.100;2023-02-03T06:01:39;13.03;;;12.63;;
22068;SDS011;13887;57.196;-2.100;2023-02-03T06:04:06;13.67;;;13.17;;
22068;SDS011;13887;57.196;-2.100;2023-02-03T06:06:34;13.90;;;13.40;;
22068;SDS011;13887;57.196;-2.100;2023-02-03T06:09:04;13.80;;;13.30;;
22068;SDS011;13887;57.196;-2.100;2023-02-03T06:11:33;13.80;;;13.30;;
22068;SDS011;13887;57.196;-2.100;2023-02-03T06:14:01;13.90;;;13.40;;
22068;SDS011;13887;57.196;-2.100;2023-02-03T06:16:29;13.13;;;12.73;;
22068;SDS011;13887;57.196;-2.100;2023-02-03T06:18:56;13.03;;;12.63;;
22068;SDS011;13887;57.196;-2.100;2023-02-03T06:21:27;13.07;;;12.67;;
22068;SDS011;13887;57.196;-2.100;2023-02-03T06:23:54;13.47;;;12.97;;
22068;SDS011;13887;57.196;-2.100;2023-02-03T06:26:22;13.50;;;13.00;;
22068;SDS011;13887;57.196;-2.100;2023-02-03T06:28:50;13.20;;;12.80;;
22068;SDS011;13887;57.196;-2.100;2023-02-03T06:31:17;13.67;;;13.17;;
22068;SDS011;13887;57.196;-2.100;2023-02-03T06:33:44;13.70;;;13.20;;
22068;SDS011;13887;57.196;-2.100;2023-02-03T06:36:11;12.87;;;12.47;;
22068;SDS011;13887;57.196;-2.100;2023-02-03T06:38:38;12.93;;;12.53;;
22068;SDS011;13887;57.196;-2.100;2023-02-03T06:41:05;13.20;;;12.80;;
22068;SDS011;13887;57.196;-2.100;2023-02-03T06:43:32;13.70;;;13.20;;
22068;SDS011;13887;57.196;-2.100;2023-02-03T06:46:00;12.80;;;12.40;;
22068;SDS011;13887;57.196;-2.100;2023-02-03T06:48:28;13.10;;;12.70;;
22068;SDS011;13887;57.196;-2.100;2023-02-03T06:50:54;12.90;;;12.50;;
22068;SDS011;13887;57.196;-2.100;2023-02-03T06:53:22;12.90;;;12.50;;
22068;SDS011;13887;57.196;-2.100;2023-02-03T06:55:49;13.90;;;13.40;;
22068;SDS011;13887;57.196;-2.100;2023-02-03T06:58:15;13.30;;;12.90;;
22068;SDS011;13887;57.196;-2.100;2023-02-03T07:00:42;13.10;;;12.70;;
22068;SDS011;13887;57.196;-2.100;2023-02-03T07:03:09;13.00;;;12.60;;
22068;SDS011;13887;57.196;-2.100;2023-02-03T07:05:36;12.97;;;12.57;;
22068;SDS011;13887;57.196;-2.100;2023-02-03T07:08:03;12.90;;;12.50;;
22068;SDS011;13887;57.196;-2.100;2023-02-03T07:10:31;12.83;;;12.43;;
22068;SDS011;13887;57.196;-2.100;2023-02-03T07:13:01;13.53;;;13.03;;
22068;SDS011;13887;57.196;-2.100;2023-02-03T07:15:29;13.27;;;12.87;;
22068;SDS011;13887;57.196;-2.100;2023-02-03T07:17:56;12.97;;;12.57;;
22068;SDS011;13887;57.196;-2.100;2023-02-03T07:20:24;13.00;;;12.60;;
22068;SDS011;13887;57.196;-2.100;2023-02-03T07:22:52;13.70;;;13.20;;
22068;SDS011;13887;57.196;-2.100;2023-02-03T07:25:23;13.00;;;12.60;;
22068;SDS011;13887;57.196;-2.100;2023-02-03T07:27:51;12.97;;;12.57;;
22068;SDS011;13887;57.196;-2.100;2023-02-03T07:30:18;13.07;;;12.67;;
22068;SDS011;13887;57.196;-2.100;2023-02-03T07:32:46;13.50;;;13.00;;
22068;SDS011;13887;57.196;-2.100;2023-02-03T07:35:17;13.00;;;12.60;;
22068;SDS011;13887;57.196;-2.100;2023-02-03T07:37:44;12.70;;;12.30;;
22068;SDS011;13887;57.196;-2.100;2023-02-03T07:40:12;12.97;;;12.57;;
22068;SDS011;13887;57.196;-2.100;2023-02-03T07:42:43;12.90;;;12.50;;
22068;SDS011;13887;57.196;-2.100;2023-02-03T07:45:12;12.47;;;12.07;;
22068;SDS011;13887;57.196;-2.100;2023-02-03T07:47:41;12.63;;;12.23;;
22068;SDS011;13887;57.196;-2.100;2023-02-03T07:50:09;12.60;;;12.20;;
22068;SDS011;13887;57.196;-2.100;2023-02-03T07:52:37;11.77;;;11.37;;
22068;SDS011;13887;57.196;-2.100;2023-02-03T07:55:04;12.13;;;11.73;;
22068;SDS011;13887;57.196;-2.100;2023-02-03T07:57:31;12.50;;;12.10;;
22068;SDS011;13887;57.196;-2.100;2023-02-03T07:59:58;12.80;;;12.40;;
22068;SDS011;13887;57.196;-2.100;2023-02-03T08:02:25;12.70;;;12.30;;
22068;SDS011;13887;57.196;-2.100;2023-02-03T08:04:52;12.00;;;11.60;;
22068;SDS011;13887;57.196;-2.100;2023-02-03T08:07:19;12.57;;;12.17;;
22068;SDS011;13887;57.196;-2.100;2023-02-03T08:09:46;12.43;;;12.03;;
22068;SDS011;13887;57.196;-2.100;2023-02-03T08:12:13;12.47;;;12.07;;
22068;SDS011;13887;57.196;-2.100;2023-02-03T08:14:40;12.40;;;12.00;;
22068;SDS011;13887;57.196;-2.100;2023-02-03T08:17:07;12.70;;;12.30;;
22068;SDS011;13887;57.196;-2.100;2023-02-03T08:19:34;12.47;;;12.07;;
22068;SDS011;13887;57.196;-2.100;2023-02-03T08:22:01;12.83;;;12.43;;
22068;SDS011;13887;57.196;-2.100;2023-02-03T08:24:28;12.47;;;12.07;;
22068;SDS011;13887;57.196;-2.100;2023-02-03T08:26:55;12.33;;;11.93;;
22068;SDS011;13887;57.196;-2.100;2023-02-03T08:29:22;12.30;;;11.90;;
22068;SDS011;13887;57.196;-2.100;2023-02-03T08:31:49;12.40;;;12.00;;
22068;SDS011;13887;57.196;-2.100;2023-02-03T08:34:16;12.83;;;12.43;;
22068;SDS011;13887;57.196;-2.100;2023-02-03T08:36:43;12.77;;;12.37;;
22068;SDS011;13887;57.196;-2.100;2023-02-03T08:39:10;12.67;;;12.27;;
22068;SDS011;13887;57.196;-2.100;2023-02-03T08:41:37;12.53;;;12.13;;
22068;SDS011;13887;57.196;-2.100;2023-02-03T08:44:04;12.33;;;11.93;;
22068;SDS011;13887;57.196;-2.100;2023-02-03T08:46:31;12.37;;;11.97;;
22068;SDS011;13887;57.196;-2.100;2023-02-03T08:48:58;12.33;;;11.93;;
22068;SDS011;13887;57.196;-2.100;2023-02-03T08:51:28;11.93;;;11.53;;
22068;SDS011;13887;57.196;-2.100;2023-02-03T08:53:55;12.03;;;11.63;;
22068;SDS011;13887;57.196;-2.100;2023-02-03T08:56:22;12.27;;;11.87;;
22068;SDS011;13887;57.196;-2.100;2023-02-03T08:58:52;11.70;;;11.30;;
22068;SDS011;13887;57.196;-2.100;2023-02-03T09:01:21;11.90;;;11.50;;
22068;SDS011;13887;57.196;-2.100;2023-02-03T09:03:48;11.80;;;11.40;;
22068;SDS011;13887;57.196;-2.100;2023-02-03T09:06:15;11.80;;;11.40;;
22068;SDS011;13887;57.196;-2.100;2023-02-03T09:08:42;11.67;;;11.27;;
22068;SDS011;13887;57.196;-2.100;2023-02-03T09:11:12;11.50;;;11.10;;
22068;SDS011;13887;57.196;-2.100;2023-02-03T09:13:40;11.53;;;11.13;;
22068;SDS011;13887;57.196;-2.100;2023-02-03T09:16:12;11.83;;;11.43;;
22068;SDS011;13887;57.196;-2.100;2023-02-03T09:18:43;11.80;;;11.40;;
22068;SDS011;13887;57.196;-2.100;2023-02-03T09:21:11;11.63;;;11.23;;
22068;SDS011;13887;57.196;-2.100;2023-02-03T09:24:01;11.50;;;11.10;;
22068;SDS011;13887;57.196;-2.100;2023-02-03T09:26:28;11.77;;;11.37;;
22068;SDS011;13887;57.196;-2.100;2023-02-03T09:28:55;11.60;;;11.20;;
22068;SDS011;13887;57.196;-2.100;2023-02-03T09:31:22;11.57;;;11.17;;
22068;SDS011;13887;57.196;-2.100;2023-02-03T09:33:49;11.77;;;11.37;;
22068;SDS011;13887;57.196;-2.100;2023-02-03T09:36:16;11.07;;;10.77;;
22068;SDS011;13887;57.196;-2.100;2023-02-03T09:38:43;11.50;;;11.10;;
22068;SDS011;13887;57.196;-2.100;2023-02-03T09:46:27;11.30;;;10.90;;
22068;SDS011;13887;57.196;-2.100;2023-02-03T09:49:07;11.87;;;11.47;;
22068;SDS011;13887;57.196;-2.100;2023-02-03T09:54:38;11.80;;;11.40;;
22068;SDS011;13887;57.196;-2.100;2023-02-03T09:57:23;11.47;;;11.07;;
22068;SDS011;13887;57.196;-2.100;2023-02-03T09:59:52;11.50;;;11.10;;
22068;SDS011;13887;57.196;-2.100;2023-02-03T10:02:43;11.20;;;10.83;;
22068;SDS011;13887;57.196;-2.100;2023-02-03T10:05:21;11.57;;;11.17;;
22068;SDS011;13887;57.196;-2.100;2023-02-03T10:08:01;11.77;;;11.37;;
22068;SDS011;13887;57.196;-2.100;2023-02-03T10:13:25;11.57;;;11.17;;
22068;SDS011;13887;57.196;-2.100;2023-02-03T10:19:05;12.13;;;11.73;;
22068;SDS011;13887;57.196;-2.100;2023-02-03T10:21:49;12.30;;;11.90;;
22068;SDS011;13887;57.196;-2.100;2023-02-03T10:24:24;12.00;;;11.60;;
22068;SDS011;13887;57.196;-2.100;2023-02-03T10:27:14;12.03;;;11.63;;
22068;SDS011;13887;57.196;-2.100;2023-02-03T10:29:44;12.57;;;12.17;;
22068;SDS011;13887;57.196;-2.100;2023-02-03T10:32:23;12.10;;;11.70;;
22068;SDS011;13887;57.196;-2.100;2023-02-03T10:34:52;12.27;;;11.87;;
22068;SDS011;13887;57.196;-2.100;2023-02-03T10:39:59;12.63;;;12.23;;
22068;SDS011;13887;57.196;-2.100;2023-02-03T10:42:30;12.40;;;12.00;;
22068;SDS011;13887;57.196;-2.100;2023-02-03T10:45:18;12.47;;;12.07;;
22068;SDS011;13887;57.196;-2.100;2023-02-03T10:47:47;12.20;;;11.80;;
22068;SDS011;13887;57.196;-2.100;2023-02-03T10:50:21;12.20;;;11.80;;
22068;SDS011;13887;57.196;-2.100;2023-02-03T10:58:28;12.33;;;11.93;;
22068;SDS011;13887;57.196;-2.100;2023-02-03T11:01:05;12.83;;;12.43;;
22068;SDS011;13887;57.196;-2.100;2023-02-03T11:03:40;12.90;;;12.50;;
22068;SDS011;13887;57.196;-2.100;2023-02-03T11:06:19;13.00;;;12.60;;
22068;SDS011;13887;57.196;-2.100;2023-02-03T11:08:47;13.27;;;12.83;;
22068;SDS011;13887;57.196;-2.100;2023-02-03T11:11:31;13.33;;;12.90;;
22068;SDS011;13887;57.196;-2.100;2023-02-03T11:16:31;13.13;;;12.73;;
22068;SDS011;13887;57.196;-2.100;2023-02-03T11:19:00;13.00;;;12.60;;
22068;SDS011;13887;57.196;-2.100;2023-02-03T11:26:40;13.00;;;12.60;;
22068;SDS011;13887;57.196;-2.100;2023-02-03T11:31:51;13.87;;;13.37;;
22068;SDS011;13887;57.196;-2.100;2023-02-03T11:34:23;13.10;;;12.70;;
22068;SDS011;13887;57.196;-2.100;2023-02-03T11:36:53;13.20;;;12.80;;
22068;SDS011;13887;57.196;-2.100;2023-02-03T11:39:27;13.40;;;12.90;;
22068;SDS011;13887;57.196;-2.100;2023-02-03T11:42:01;12.93;;;12.53;;
22068;SDS011;13887;57.196;-2.100;2023-02-03T11:44:29;12.60;;;12.20;;
22068;SDS011;13887;57.196;-2.100;2023-02-03T11:47:03;12.87;;;12.47;;
22068;SDS011;13887;57.196;-2.100;2023-02-03T11:55:18;12.67;;;12.27;;
22068;SDS011;13887;57.196;-2.100;2023-02-03T12:18:16;11.93;;;11.53;;
22068;SDS011;13887;57.196;-2.100;2023-02-03T12:29:23;11.90;;;11.50;;
22068;SDS011;13887;57.196;-2.100;2023-02-03T12:34:47;11.83;;;11.43;;
22068;SDS011;13887;57.196;-2.100;2023-02-03T12:37:29;11.63;;;11.23;;
22068;SDS011;13887;57.196;-2.100;2023-02-03T12:40:17;11.97;;;11.57;;
22068;SDS011;13887;57.196;-2.100;2023-02-03T12:42:51;12.87;;;12.47;;
22068;SDS011;13887;57.196;-2.100;2023-02-03T12:45:24;12.70;;;12.30;;
22068;SDS011;13887;57.196;-2.100;2023-02-03T12:48:01;12.87;;;12.47;;
22068;SDS011;13887;57.196;-2.100;2023-02-03T12:55:50;13.93;;;13.43;;
22068;SDS011;13887;57.196;-2.100;2023-02-03T12:58:23;12.83;;;12.43;;
22068;SDS011;13887;57.196;-2.100;2023-02-03T13:01:30;11.83;;;11.43;;
22068;SDS011;13887;57.196;-2.100;2023-02-03T13:04:07;12.37;;;11.97;;
22068;SDS011;13887;57.196;-2.100;2023-02-03T13:06:59;12.40;;;12.00;;
22068;SDS011;13887;57.196;-2.100;2023-02-03T13:09:40;12.77;;;12.37;;
22068;SDS011;13887;57.196;-2.100;2023-02-03T13:14:49;12.67;;;12.27;;
22068;SDS011;13887;57.196;-2.100;2023-02-03T13:17:24;12.60;;;12.20;;
22068;SDS011;13887;57.196;-2.100;2023-02-03T13:19:55;11.80;;;11.40;;
22068;SDS011;13887;57.196;-2.100;2023-02-03T13:22:25;11.80;;;11.40;;
22068;SDS011;13887;57.196;-2.100;2023-02-03T13:24:55;11.77;;;11.37;;
22068;SDS011;13887;57.196;-2.100;2023-02-03T13:28:33;12.53;;;12.13;;
22068;SDS011;13887;57.196;-2.100;2023-02-03T13:41:44;13.00;;;12.57;;
22068;SDS011;13887;57.196;-2.100;2023-02-03T13:44:17;12.07;;;11.67;;
22068;SDS011;13887;57.196;-2.100;2023-02-03T13:46:47;12.30;;;11.90;;
22068;SDS011;13887;57.196;-2.100;2023-02-03T13:49:23;12.70;;;12.30;;
22068;SDS011;13887;57.196;-2.100;2023-02-03T13:51:56;12.80;;;12.40;;
22068;SDS011;13887;57.196;-2.100;2023-02-03T13:54:27;12.37;;;11.97;;
22068;SDS011;13887;57.196;-2.100;2023-02-03T13:56:59;11.87;;;11.47;;
22068;SDS011;13887;57.196;-2.100;2023-02-03T13:59:42;12.30;;;11.90;;
22068;SDS011;13887;57.196;-2.100;2023-02-03T14:07:33;11.97;;;11.57;;
22068;SDS011;13887;57.196;-2.100;2023-02-03T14:25:33;12.73;;;12.33;;
22068;SDS011;13887;57.196;-2.100;2023-02-03T14:28:11;13.17;;;12.67;;
22068;SDS011;13887;57.196;-2.100;2023-02-03T14:31:24;12.77;;;12.37;;
22068;SDS011;13887;57.196;-2.100;2023-02-03T14:38:54;12.60;;;12.20;;
22068;SDS011;13887;57.196;-2.100;2023-02-03T14:41:36;12.00;;;11.60;;
22068;SDS011;13887;57.196;-2.100;2023-02-03T14:46:52;12.80;;;12.40;;
22068;SDS011;13887;57.196;-2.100;2023-02-03T14:49:33;12.67;;;12.27;;
22068;SDS011;13887;57.196;-2.100;2023-02-03T14:57:58;12.57;;;12.17;;
22068;SDS011;13887;57.196;-2.100;2023-02-03T15:00:32;11.90;;;11.50;;
22068;SDS011;13887;57.196;-2.100;2023-02-03T15:05:38;12.87;;;12.47;;
22068;SDS011;13887;57.196;-2.100;2023-02-03T15:11:41;12.00;;;11.60;;
22068;SDS011;13887;57.196;-2.100;2023-02-03T15:14:25;12.20;;;11.80;;
22068;SDS011;13887;57.196;-2.100;2023-02-03T15:17:00;12.10;;;11.70;;
22068;SDS011;13887;57.196;-2.100;2023-02-03T15:19:33;12.70;;;12.30;;
22068;SDS011;13887;57.196;-2.100;2023-02-03T15:22:16;12.03;;;11.63;;
22068;SDS011;13887;57.196;-2.100;2023-02-03T15:24:44;12.20;;;11.80;;
22068;SDS011;13887;57.196;-2.100;2023-02-03T15:27:22;12.07;;;11.67;;
22068;SDS011;13887;57.196;-2.100;2023-02-03T15:29:52;11.83;;;11.43;;
22068;SDS011;13887;57.196;-2.100;2023-02-03T15:32:27;12.20;;;11.80;;
22068;SDS011;13887;57.196;-2.100;2023-02-03T15:35:08;11.57;;;11.17;;
22068;SDS011;13887;57.196;-2.100;2023-02-03T15:37:49;10.90;;;10.60;;
22068;SDS011;13887;57.196;-2.100;2023-02-03T15:40:18;11.47;;;11.07;;
22068;SDS011;13887;57.196;-2.100;2023-02-03T15:46:13;12.40;;;12.00;;
22068;SDS011;13887;57.196;-2.100;2023-02-03T15:51:17;12.20;;;11.80;;
22068;SDS011;13887;57.196;-2.100;2023-02-03T15:54:35;12.30;;;11.90;;
22068;SDS011;13887;57.196;-2.100;2023-02-03T15:56:41;12.70;;;12.30;;
22068;SDS011;13887;57.196;-2.100;2023-02-03T15:59:32;12.70;;;12.30;;
22068;SDS011;13887;57.196;-2.100;2023-02-03T16:02:21;12.23;;;11.83;;
22068;SDS011;13887;57.196;-2.100;2023-02-03T16:04:55;12.50;;;12.10;;
22068;SDS011;13887;57.196;-2.100;2023-02-03T16:07:24;11.90;;;11.50;;
22068;SDS011;13887;57.196;-2.100;2023-02-03T16:09:54;11.90;;;11.50;;
22068;SDS011;13887;57.196;-2.100;2023-02-03T16:12:30;12.00;;;11.60;;
22068;SDS011;13887;57.196;-2.100;2023-02-03T16:14:59;11.63;;;11.23;;
22068;SDS011;13887;57.196;-2.100;2023-02-03T16:17:34;11.80;;;11.40;;
22068;SDS011;13887;57.196;-2.100;2023-02-03T16:25:25;12.60;;;12.20;;
22068;SDS011;13887;57.196;-2.100;2023-02-03T16:31:01;13.47;;;13.07;;
22068;SDS011;13887;57.196;-2.100;2023-02-03T16:33:56;13.70;;;13.23;;
22068;SDS011;13887;57.196;-2.100;2023-02-03T16:36:42;13.47;;;13.07;;
22068;SDS011;13887;57.196;-2.100;2023-02-03T16:39:28;12.93;;;12.53;;
22068;SDS011;13887;57.196;-2.100;2023-02-03T16:42:15;12.90;;;12.50;;
22068;SDS011;13887;57.196;-2.100;2023-02-03T16:45:03;12.60;;;12.20;;
22068;SDS011;13887;57.196;-2.100;2023-02-03T16:47:55;12.33;;;11.93;;
22068;SDS011;13887;57.196;-2.100;2023-02-03T16:50:41;12.80;;;12.40;;
22068;SDS011;13887;57.196;-2.100;2023-02-03T16:53:19;12.50;;;12.10;;
22068;SDS011;13887;57.196;-2.100;2023-02-03T16:55:50;12.60;;;12.20;;
22068;SDS011;13887;57.196;-2.100;2023-02-03T16:58:19;12.33;;;11.93;;
22068;SDS011;13887;57.196;-2.100;2023-02-03T17:00:47;12.30;;;11.90;;
22068;SDS011;13887;57.196;-2.100;2023-02-03T17:03:16;13.00;;;12.60;;
22068;SDS011;13887;57.196;-2.100;2023-02-03T17:05:45;12.27;;;11.87;;
22068;SDS011;13887;57.196;-2.100;2023-02-03T17:08:13;12.20;;;11.80;;
22068;SDS011;13887;57.196;-2.100;2023-02-03T17:10:41;12.30;;;11.90;;
22068;SDS011;13887;57.196;-2.100;2023-02-03T17:13:10;11.97;;;11.57;;
22068;SDS011;13887;57.196;-2.100;2023-02-03T17:15:41;12.77;;;12.37;;
22068;SDS011;13887;57.196;-2.100;2023-02-03T17:18:09;12.40;;;12.00;;
22068;SDS011;13887;57.196;-2.100;2023-02-03T17:20:37;12.13;;;11.73;;
22068;SDS011;13887;57.196;-2.100;2023-02-03T17:23:04;12.20;;;11.80;;